createdAt,value
2024-03-06T00:00:20.685Z,2.35
2024-03-06T00:02:49.021Z,2.28
2024-03-06T00:05:16.089Z,2.35
2024-03-06T00:07:43.516Z,1.92
2024-03-06T00:10:10.861Z,2.10
2024-03-06T00:12:37.943Z,3.05
2024-03-06T00:15:05.759Z,1.52
2024-03-06T00:17:32.884Z,2.13
2024-03-06T00:20:01.368Z,1.65
2024-03-06T00:22:28.449Z,1.88
2024-03-06T00:24:55.547Z,1.52
2024-03-06T00:27:22.715Z,2.47
2024-03-06T00:29:49.773Z,2.10
2024-03-06T00:32:17.227Z,2.00
2024-03-06T00:34:44.366Z,2.53
2024-03-06T00:37:12.961Z,2.15
2024-03-06T00:39:40.050Z,4.22
2024-03-06T00:42:09.018Z,1.48
2024-03-06T00:44:36.385Z,2.33
2024-03-06T00:47:03.602Z,1.98
2024-03-06T00:49:30.696Z,2.03
2024-03-06T00:51:57.825Z,1.70
2024-03-06T00:54:26.205Z,1.73
2024-03-06T00:56:53.183Z,1.88
2024-03-06T00:59:20.318Z,1.15
2024-03-06T01:01:48.399Z,1.55
2024-03-06T01:04:15.630Z,1.30
2024-03-06T01:06:42.976Z,1.25
2024-03-06T01:09:09.933Z,1.20
2024-03-06T01:11:38.286Z,1.23
2024-03-06T01:14:05.789Z,1.40
2024-03-06T01:16:32.957Z,1.10
2024-03-06T01:19:00.016Z,2.80
2024-03-06T01:21:26.993Z,1.27
2024-03-06T01:23:54.163Z,1.52
2024-03-06T01:26:21.921Z,1.58
2024-03-06T01:28:50.449Z,1.20
2024-03-06T01:31:17.552Z,1.23
2024-03-06T01:33:44.584Z,2.33
2024-03-06T01:36:11.649Z,1.48
2024-03-06T01:38:39.724Z,1.98
2024-03-06T01:41:06.861Z,1.67
2024-03-06T01:43:39.490Z,1.48
2024-03-06T01:46:07.932Z,2.03
2024-03-06T01:48:36.392Z,1.35
2024-03-06T01:51:06.004Z,1.88
2024-03-06T01:53:34.654Z,2.88
2024-03-06T01:56:02.747Z,1.10
2024-03-06T01:58:30.108Z,2.63
2024-03-06T02:00:57.650Z,2.40
2024-03-06T02:03:26.680Z,2.08
2024-03-06T02:05:54.590Z,3.35
2024-03-06T02:08:21.744Z,1.50
2024-03-06T02:10:48.977Z,3.20
2024-03-06T02:13:16.588Z,2.08
2024-03-06T02:15:45.424Z,2.13
2024-03-06T02:18:12.749Z,1.52
2024-03-06T02:20:41.804Z,2.72
2024-03-06T02:23:09.485Z,3.00
2024-03-06T02:25:36.917Z,2.00
2024-03-06T02:28:04.499Z,1.67
2024-03-06T02:30:37.474Z,1.52
2024-03-06T02:33:05.473Z,1.40
2024-03-06T02:35:32.609Z,3.72
2024-03-06T02:38:02.006Z,2.10
2024-03-06T02:40:29.765Z,1.52
2024-03-06T02:42:56.792Z,2.65
2024-03-06T02:45:23.884Z,1.70
2024-03-06T02:47:51.164Z,2.42
2024-03-06T02:50:18.397Z,1.92
2024-03-06T02:52:45.457Z,1.58
2024-03-06T02:55:14.059Z,3.10
2024-03-06T02:57:41.531Z,1.50
2024-03-06T03:00:14.140Z,1.77
2024-03-06T03:02:41.634Z,3.08
2024-03-06T03:05:09.491Z,1.52
2024-03-06T03:07:36.862Z,2.60
2024-03-06T03:10:05.671Z,1.48
2024-03-06T03:12:34.915Z,1.67
2024-03-06T03:15:02.175Z,1.73
2024-03-06T03:17:29.289Z,1.75
2024-03-06T03:19:56.837Z,1.50
2024-03-06T03:22:26.445Z,1.95
2024-03-06T03:24:53.492Z,2.28
2024-03-06T03:27:20.564Z,2.67
2024-03-06T03:29:49.269Z,1.67
2024-03-06T03:32:17.725Z,2.50
2024-03-06T03:34:45.144Z,2.17
2024-03-06T03:37:14.261Z,2.20
2024-03-06T03:39:41.286Z,2.53
2024-03-06T03:42:08.310Z,1.92
2024-03-06T03:44:36.692Z,2.92
2024-03-06T03:47:05.404Z,2.85
2024-03-06T03:49:32.799Z,3.25
2024-03-06T03:52:00.008Z,3.92
2024-03-06T03:54:27.043Z,4.22
2024-03-06T03:56:54.827Z,3.10
2024-03-06T03:59:24.964Z,4.15
2024-03-06T04:01:52.212Z,3.25
2024-03-06T04:04:20.664Z,5.93
2024-03-06T04:06:47.841Z,4.10
2024-03-06T04:09:15.932Z,4.30
2024-03-06T04:11:43.321Z,4.32
2024-03-06T04:14:10.552Z,3.88
2024-03-06T04:16:37.882Z,4.95
2024-03-06T04:19:04.914Z,5.28
2024-03-06T04:21:33.700Z,5.60
2024-03-06T04:24:00.704Z,5.68
2024-03-06T04:26:28.441Z,5.00
2024-03-06T04:28:55.655Z,4.35
2024-03-06T04:31:22.821Z,5.25
2024-03-06T04:33:49.810Z,7.88
2024-03-06T04:36:16.843Z,4.82
2024-03-06T04:38:45.194Z,6.03
2024-03-06T04:41:12.396Z,3.70
2024-03-06T04:43:39.735Z,5.10
2024-03-06T04:46:06.814Z,4.43
2024-03-06T04:48:34.030Z,6.43
2024-03-06T04:51:01.704Z,7.30
2024-03-06T04:53:31.322Z,4.35
2024-03-06T04:55:59.911Z,3.90
2024-03-06T04:58:27.055Z,5.57
2024-03-06T05:00:54.332Z,3.22
2024-03-06T05:58:35.709Z,4.18
2024-03-06T06:01:04.746Z,3.47
2024-03-06T06:03:32.100Z,3.65
2024-03-06T06:06:00.163Z,7.93
2024-03-06T06:08:27.551Z,4.13
2024-03-06T06:10:55.948Z,4.18
2024-03-06T06:13:23.222Z,4.70
2024-03-06T06:15:50.317Z,3.25
2024-03-06T06:18:18.965Z,4.22
2024-03-06T06:20:46.166Z,4.63
2024-03-06T06:23:13.411Z,3.90
2024-03-06T06:25:40.469Z,5.38
2024-03-06T06:28:07.504Z,3.20
2024-03-06T06:30:34.925Z,3.20
2024-03-06T06:33:02.000Z,3.75
2024-03-06T06:35:30.496Z,3.80
2024-03-06T06:37:57.574Z,3.65
2024-03-06T06:40:24.684Z,3.33
2024-03-06T06:42:51.958Z,2.85
2024-03-06T06:45:20.039Z,3.53
2024-03-06T06:47:47.408Z,2.60
2024-03-06T06:50:14.746Z,3.25
2024-03-06T06:52:43.512Z,2.88
2024-03-06T06:55:12.661Z,4.40
2024-03-06T06:57:40.021Z,3.20
2024-03-06T07:00:14.471Z,2.35
2024-03-06T07:02:44.660Z,5.77
2024-03-06T07:05:12.444Z,3.70
2024-03-06T07:07:39.968Z,3.40
2024-03-06T07:10:09.720Z,3.03
2024-03-06T07:12:38.198Z,2.83
2024-03-06T07:15:06.430Z,3.03
2024-03-06T07:17:34.202Z,3.42
2024-03-06T07:20:01.861Z,4.57
2024-03-06T07:22:29.337Z,3.83
2024-03-06T07:24:56.289Z,4.47
2024-03-06T07:27:24.790Z,6.68
2024-03-06T07:29:51.774Z,3.83
2024-03-06T07:32:19.151Z,5.22
2024-03-06T07:34:46.262Z,4.32
2024-03-06T07:37:13.621Z,3.85
2024-03-06T07:39:40.736Z,3.35
2024-03-06T07:42:08.330Z,3.10
2024-03-06T07:44:37.344Z,3.47
2024-03-06T07:47:05.115Z,2.92
2024-03-06T07:49:32.205Z,2.08
2024-03-06T07:51:59.211Z,2.42
2024-03-06T07:54:26.337Z,5.13
2024-03-06T07:56:54.703Z,3.30
2024-03-06T07:59:21.815Z,3.42
2024-03-06T08:01:50.584Z,3.42
2024-03-06T08:04:18.286Z,3.72
2024-03-06T08:06:45.383Z,6.90
2024-03-06T08:09:12.497Z,3.45
2024-03-06T08:11:39.529Z,6.07
2024-03-06T08:14:07.660Z,2.58
2024-03-06T08:16:37.298Z,4.35
2024-03-06T08:19:06.380Z,3.83
2024-03-06T08:21:33.513Z,2.22
2024-03-06T08:24:00.964Z,2.88
2024-03-06T08:26:28.750Z,3.08
2024-03-06T08:28:56.186Z,3.05
2024-03-06T08:31:23.214Z,2.90
2024-03-06T08:33:50.775Z,3.15
2024-03-06T08:36:20.078Z,4.00
2024-03-06T08:38:47.185Z,7.53
2024-03-06T08:41:14.631Z,4.28
2024-03-06T08:43:41.732Z,3.50
2024-03-06T08:46:08.769Z,2.67
2024-03-06T08:48:36.691Z,3.10
2024-03-06T08:51:06.441Z,4.07
2024-03-06T08:53:34.853Z,2.63
2024-03-06T08:56:01.924Z,3.22
2024-03-06T08:58:29.295Z,3.83
2024-03-06T09:00:56.494Z,2.85
2024-03-06T09:03:24.327Z,3.78
2024-03-06T09:05:52.022Z,3.22
2024-03-06T09:08:20.000Z,4.75
2024-03-06T09:10:48.535Z,3.47
2024-03-06T09:13:15.615Z,3.05
2024-03-06T09:15:43.848Z,4.82
2024-03-06T09:18:11.170Z,6.75
2024-03-06T09:20:38.568Z,17.98
2024-03-06T09:23:05.800Z,5.50
2024-03-06T09:25:32.828Z,6.35
2024-03-06T09:28:05.876Z,6.28
2024-03-06T09:30:32.873Z,8.00
2024-03-06T09:33:00.204Z,7.28
2024-03-06T09:35:27.317Z,7.55
2024-03-06T09:37:55.061Z,8.02
2024-03-06T09:40:23.581Z,7.30
2024-03-06T09:42:51.116Z,7.05
2024-03-06T09:45:21.086Z,6.63
2024-03-06T09:47:51.794Z,8.80
2024-03-06T09:50:25.346Z,9.23
2024-03-06T09:52:54.758Z,12.02
2024-03-06T09:55:22.245Z,9.68
2024-03-06T09:57:52.242Z,9.68
2024-03-06T10:00:22.908Z,8.32
2024-03-06T10:02:55.787Z,7.50
2024-03-06T10:05:24.316Z,11.02
2024-03-06T10:07:52.672Z,14.68
2024-03-06T10:10:21.065Z,7.03
2024-03-06T10:12:51.122Z,9.75
2024-03-06T10:15:18.215Z,9.75
2024-03-06T10:20:21.532Z,7.60
2024-03-06T10:22:52.606Z,12.87
2024-03-06T10:25:22.586Z,8.13
2024-03-06T10:28:10.434Z,8.13
2024-03-06T10:30:38.934Z,6.47
2024-03-06T10:33:07.632Z,8.23
2024-03-06T10:35:34.989Z,6.60
2024-03-06T10:38:03.806Z,10.25
2024-03-06T10:40:34.096Z,5.55
2024-03-06T10:43:03.394Z,8.55
2024-03-06T10:45:40.870Z,6.32
2024-03-06T10:48:12.803Z,8.25
2024-03-06T10:50:44.449Z,6.30
2024-03-06T10:53:14.295Z,6.57
2024-03-06T10:55:45.889Z,6.32
2024-03-06T10:58:14.217Z,7.80
2024-03-06T11:00:43.565Z,5.65
2024-03-06T11:03:13.202Z,5.60
2024-03-06T11:05:41.217Z,5.40
2024-03-06T11:08:10.047Z,5.18
2024-03-06T11:10:41.378Z,7.07
2024-03-06T11:13:22.633Z,5.20
2024-03-06T11:15:55.750Z,7.43
2024-03-06T11:18:46.528Z,6.35
2024-03-06T11:21:35.248Z,8.02
2024-03-06T11:24:16.600Z,6.18
2024-03-06T11:29:20.260Z,6.22
2024-03-06T11:32:05.073Z,6.78
2024-03-06T11:34:33.887Z,7.43
2024-03-06T11:37:05.851Z,13.32
2024-03-06T11:39:35.434Z,8.07
2024-03-06T11:42:02.550Z,6.53
2024-03-06T11:44:30.926Z,13.45
2024-03-06T11:46:59.889Z,10.13
2024-03-06T11:49:30.042Z,11.20
2024-03-06T11:52:00.198Z,11.30
2024-03-06T11:54:28.746Z,8.68
2024-03-06T11:56:57.128Z,12.60
2024-03-06T11:59:24.879Z,7.45
2024-03-06T12:01:52.949Z,8.35
2024-03-06T12:04:21.359Z,5.10
2024-03-06T12:06:49.289Z,5.15
2024-03-06T12:09:18.329Z,6.43
2024-03-06T12:11:45.559Z,6.80
2024-03-06T12:14:16.044Z,9.02
2024-03-06T12:16:43.466Z,8.10
2024-03-06T12:19:10.883Z,9.02
2024-03-06T12:21:40.033Z,4.03
2024-03-06T12:24:08.369Z,3.20
2024-03-06T12:26:38.224Z,3.70
2024-03-06T12:29:07.156Z,2.58
2024-03-06T12:31:36.241Z,3.80
2024-03-06T12:34:07.282Z,4.80
2024-03-06T12:36:34.475Z,3.83
2024-03-06T12:39:04.477Z,2.90
2024-03-06T12:41:31.708Z,3.67
2024-03-06T12:44:00.368Z,4.18
2024-03-06T12:46:27.761Z,4.25
2024-03-06T12:48:54.898Z,7.78
2024-03-06T12:51:22.219Z,2.83
2024-03-06T12:53:49.584Z,5.15
2024-03-06T12:56:16.768Z,3.33
2024-03-06T12:58:44.083Z,6.82
2024-03-06T13:01:12.493Z,2.67
2024-03-06T13:03:39.951Z,3.63
2024-03-06T13:06:07.388Z,3.95
2024-03-06T13:08:34.743Z,7.30
2024-03-06T13:11:02.023Z,6.18
2024-03-06T13:13:30.801Z,3.47
2024-03-06T13:15:57.793Z,4.50
2024-03-06T13:18:26.970Z,7.35
2024-03-06T13:20:56.053Z,5.70
2024-03-06T13:23:25.702Z,2.55
2024-03-06T13:25:52.806Z,6.38
2024-03-06T13:28:22.093Z,4.82
2024-03-06T13:30:49.215Z,4.70
2024-03-06T13:33:16.234Z,4.15
2024-03-06T13:35:44.875Z,6.72
2024-03-06T13:38:12.045Z,2.55
2024-03-06T13:40:40.706Z,6.03
2024-03-06T13:43:08.761Z,3.03
2024-03-06T13:45:36.119Z,3.65
2024-03-06T13:48:03.565Z,4.35
2024-03-06T13:50:31.907Z,5.07
2024-03-06T13:53:00.348Z,3.28
2024-03-06T13:55:32.065Z,5.07
2024-03-06T13:58:00.228Z,5.70
2024-03-06T14:00:28.560Z,3.72
2024-03-06T14:02:56.803Z,4.43
2024-03-06T14:05:26.322Z,5.90
2024-03-06T14:07:53.679Z,6.40
2024-03-06T14:10:25.828Z,5.53
2024-03-06T14:12:53.852Z,7.18
2024-03-06T14:15:21.539Z,4.80
2024-03-06T14:17:48.593Z,4.18
2024-03-06T14:20:18.440Z,16.50
2024-03-06T14:22:47.031Z,24.88
2024-03-06T14:25:14.508Z,122.97
2024-03-06T14:27:43.069Z,223.98
2024-03-06T14:30:14.407Z,761.28
2024-03-06T14:32:41.719Z,903.75
2024-03-06T14:35:09.804Z,605.80
2024-03-06T14:37:37.177Z,999.00
2024-03-06T14:40:09.632Z,906.08
2024-03-06T14:42:37.376Z,687.05
2024-03-06T14:45:06.653Z,890.75
2024-03-06T14:47:34.116Z,801.50
2024-03-06T14:50:01.397Z,889.90
2024-03-06T14:52:28.572Z,531.35
2024-03-06T14:54:57.002Z,541.10
2024-03-06T14:57:25.304Z,651.88
2024-03-06T14:59:53.650Z,778.08
2024-03-06T15:02:24.320Z,503.95
2024-03-06T15:04:51.691Z,695.42
2024-03-06T15:07:20.071Z,438.48
2024-03-06T15:09:49.699Z,399.48
2024-03-06T15:12:17.097Z,396.67
2024-03-06T15:14:47.252Z,301.35
2024-03-06T15:17:17.634Z,262.48
2024-03-06T15:19:46.040Z,212.30
2024-03-06T15:22:14.141Z,165.73
2024-03-06T15:24:41.528Z,156.00
2024-03-06T15:27:08.529Z,125.78
2024-03-06T15:29:35.648Z,132.15
2024-03-06T15:32:03.478Z,126.30
2024-03-06T15:34:30.803Z,95.72
2024-03-06T15:36:59.182Z,69.35
2024-03-06T15:39:26.566Z,98.82
2024-03-06T15:41:57.015Z,86.25
2024-03-06T15:44:24.053Z,78.68
2024-03-06T15:46:59.091Z,84.10
2024-03-06T15:49:30.774Z,127.30
2024-03-06T15:51:59.178Z,159.18
2024-03-06T15:54:26.507Z,142.82
2024-03-06T15:56:53.574Z,105.28
2024-03-06T15:59:21.685Z,136.88
2024-03-06T16:01:48.804Z,110.32
2024-03-06T16:04:16.005Z,101.30
2024-03-06T16:06:45.035Z,65.82
2024-03-06T16:09:15.252Z,48.05
2024-03-06T16:11:43.524Z,38.42
2024-03-06T16:14:11.100Z,31.05
2024-03-06T16:16:41.213Z,21.38
2024-03-06T16:19:08.288Z,17.85
2024-03-06T16:21:35.615Z,31.02
2024-03-06T16:24:02.823Z,32.00
2024-03-06T16:26:33.295Z,20.25
2024-03-06T16:29:02.359Z,20.23
2024-03-06T16:31:29.577Z,22.20
2024-03-06T16:33:56.776Z,19.05
2024-03-06T16:36:24.720Z,14.50
2024-03-06T16:38:52.217Z,12.60
2024-03-06T16:41:20.039Z,13.35
2024-03-06T16:43:48.543Z,10.02
2024-03-06T16:46:18.763Z,9.45
2024-03-06T16:48:45.851Z,7.95
2024-03-06T16:51:18.801Z,12.88
2024-03-06T16:53:45.939Z,17.83
2024-03-06T16:56:13.060Z,11.55
2024-03-06T16:58:40.149Z,10.68
2024-03-06T17:01:08.511Z,10.80
2024-03-06T17:03:35.601Z,14.63
2024-03-06T17:06:02.814Z,7.93
2024-03-06T17:08:29.851Z,14.63
2024-03-06T17:10:58.257Z,60.90
2024-03-06T17:13:26.320Z,50.63
2024-03-06T17:15:56.402Z,51.88
2024-03-06T17:18:27.281Z,37.03
2024-03-06T17:20:56.722Z,43.22
2024-03-06T17:23:27.689Z,43.20
2024-03-06T17:25:56.775Z,34.80
2024-03-06T17:28:25.486Z,31.77
2024-03-06T17:30:52.819Z,18.08
2024-03-06T17:33:19.846Z,22.35
2024-03-06T17:35:49.329Z,26.42
2024-03-06T17:38:19.914Z,7.88
2024-03-06T17:40:47.429Z,15.40
2024-03-06T17:43:15.269Z,6.65
2024-03-06T17:45:42.529Z,15.57
2024-03-06T17:50:45.948Z,13.50
2024-03-06T17:53:16.764Z,11.35
2024-03-06T17:55:43.825Z,9.40
2024-03-06T17:58:13.893Z,4.13
2024-03-06T18:00:42.787Z,4.68
2024-03-06T18:03:10.230Z,6.32
2024-03-06T18:05:37.605Z,3.33
2024-03-06T18:08:05.332Z,5.78
2024-03-06T18:10:34.277Z,4.32
2024-03-06T18:13:01.498Z,5.45
2024-03-06T18:15:28.525Z,2.45
2024-03-06T18:17:55.973Z,3.90
2024-03-06T18:20:23.080Z,5.13
2024-03-06T18:22:50.141Z,2.55
2024-03-06T18:25:17.302Z,4.32
2024-03-06T18:27:45.717Z,4.03
2024-03-06T18:30:13.830Z,4.28
2024-03-06T18:32:40.875Z,2.55
2024-03-06T18:35:08.767Z,4.28
2024-03-06T18:37:35.856Z,2.33
2024-03-06T18:40:04.164Z,2.13
2024-03-06T18:42:31.306Z,3.00
2024-03-06T18:44:59.850Z,3.45
2024-03-06T18:47:26.996Z,2.70
2024-03-06T18:52:26.433Z,3.40
2024-03-06T18:54:53.652Z,3.05
2024-03-06T18:57:20.779Z,2.90
2024-03-06T18:59:48.316Z,1.98
2024-03-06T19:02:16.958Z,3.45
2024-03-06T19:04:45.882Z,1.70
2024-03-06T19:07:14.012Z,2.55
2024-03-06T19:09:41.065Z,1.45
2024-03-06T19:12:09.258Z,1.70
2024-03-06T19:14:36.346Z,3.13
2024-03-06T19:17:03.423Z,1.48
2024-03-06T19:19:32.044Z,3.72
2024-03-06T19:21:59.751Z,1.33
2024-03-06T19:24:27.008Z,1.90
2024-03-06T19:26:54.672Z,2.15
2024-03-06T19:29:22.165Z,2.28
2024-03-06T19:31:49.127Z,2.47
2024-03-06T19:34:17.602Z,3.20
2024-03-06T19:36:48.794Z,3.20
2024-03-06T19:39:15.876Z,2.17
2024-03-06T19:41:42.957Z,1.65
2024-03-06T19:44:11.339Z,1.70
2024-03-06T19:46:38.397Z,2.08
2024-03-06T19:49:05.495Z,3.05
2024-03-06T19:51:33.925Z,2.95
2024-03-06T19:54:02.338Z,2.47
2024-03-06T19:56:29.455Z,3.85
2024-03-06T19:58:56.526Z,2.45
2024-03-06T20:01:23.673Z,2.45
2024-03-06T20:03:51.523Z,4.35
2024-03-06T20:06:18.594Z,2.33
2024-03-06T20:08:45.907Z,2.05
2024-03-06T20:11:14.334Z,2.83
2024-03-06T20:13:41.443Z,2.25
2024-03-06T20:16:08.523Z,1.80
2024-03-06T20:18:36.501Z,3.78
2024-03-06T20:21:04.365Z,3.13
2024-03-06T20:23:31.385Z,2.33
2024-03-06T20:25:58.748Z,2.63
2024-03-06T20:28:28.312Z,1.70
2024-03-06T20:30:55.424Z,2.63
2024-03-06T20:33:24.418Z,2.45
2024-03-06T20:35:52.538Z,1.48
2024-03-06T20:38:22.099Z,2.08
2024-03-06T20:40:51.062Z,2.10
2024-03-06T20:43:21.415Z,4.55
2024-03-06T20:45:51.653Z,1.40
2024-03-06T20:48:19.022Z,2.55
2024-03-06T20:50:46.360Z,1.80
2024-03-06T20:53:13.929Z,1.85
2024-03-06T20:55:41.905Z,2.28
2024-03-06T20:58:09.835Z,3.08
2024-03-06T21:00:36.854Z,2.97
2024-03-06T21:03:05.864Z,3.05
2024-03-06T21:05:33.053Z,2.28
2024-03-06T21:08:00.144Z,2.33
2024-03-06T21:10:27.592Z,3.05
2024-03-06T21:12:55.358Z,2.95
2024-03-06T21:15:25.641Z,2.53
2024-03-06T21:17:52.804Z,1.73
2024-03-06T21:20:22.466Z,3.65
2024-03-06T21:22:50.479Z,1.52
2024-03-06T21:25:17.673Z,4.15
2024-03-06T21:27:44.778Z,2.15
2024-03-06T21:30:13.061Z,2.58
2024-03-06T21:32:41.275Z,3.42
2024-03-06T21:35:09.723Z,3.63
2024-03-06T21:37:39.891Z,3.28
2024-03-06T21:40:09.789Z,2.03
2024-03-06T21:42:37.020Z,1.77
2024-03-06T21:45:04.481Z,1.52
2024-03-06T21:47:31.467Z,3.33
2024-03-06T21:49:59.996Z,3.00
2024-03-06T21:52:27.144Z,2.33
2024-03-06T21:54:55.528Z,2.55
2024-03-06T21:57:22.821Z,2.60
2024-03-06T21:59:49.968Z,2.72
2024-03-06T22:02:17.314Z,2.00
2024-03-06T22:04:45.220Z,4.20
2024-03-06T22:07:13.207Z,3.45
2024-03-06T22:09:40.265Z,2.97
2024-03-06T22:12:09.785Z,4.82
2024-03-06T22:14:36.948Z,3.17
2024-03-06T22:17:04.199Z,2.72
2024-03-06T22:19:31.192Z,3.40
2024-03-06T22:21:59.569Z,2.97
2024-03-06T22:24:26.705Z,2.75
2024-03-06T22:26:54.538Z,2.95
2024-03-06T22:29:23.003Z,4.13
2024-03-06T22:31:50.488Z,3.25
2024-03-06T22:34:17.506Z,4.25
2024-03-06T22:36:44.588Z,2.97
2024-03-06T22:39:11.634Z,2.20
2024-03-06T22:41:38.875Z,2.72
2024-03-06T22:44:06.654Z,3.03
2024-03-06T22:46:44.441Z,3.00
2024-03-06T22:49:17.865Z,4.05
2024-03-06T22:51:44.932Z,3.53
2024-03-06T22:54:11.965Z,3.45
2024-03-06T22:56:40.606Z,3.25
2024-03-06T22:59:07.985Z,3.22
2024-03-06T23:01:36.594Z,4.32
2024-03-06T23:04:04.915Z,3.28
2024-03-06T23:06:32.337Z,3.50
2024-03-06T23:09:00.865Z,3.25
2024-03-06T23:11:30.047Z,3.45
2024-03-06T23:13:57.248Z,3.20
2024-03-06T23:16:24.753Z,2.70
2024-03-06T23:18:54.298Z,3.92
2024-03-06T23:21:21.368Z,3.35
2024-03-06T23:23:48.644Z,3.17
2024-03-06T23:26:16.053Z,5.80
2024-03-06T23:28:43.413Z,2.97
2024-03-06T23:31:10.453Z,3.67
2024-03-06T23:33:37.524Z,4.15
2024-03-06T23:36:07.379Z,4.75
2024-03-06T23:38:34.492Z,3.38
2024-03-06T23:41:01.618Z,2.83
2024-03-06T23:43:28.788Z,4.30
2024-03-06T23:45:55.937Z,4.95
2024-03-06T23:48:23.770Z,4.05
2024-03-06T23:50:51.352Z,3.40
2024-03-06T23:53:20.586Z,3.92
2024-03-06T23:55:48.996Z,4.82
2024-03-06T23:58:17.403Z,3.30
